sensor_id;sensor_type;location;lat;lon;timestamp;temperature;humidity
39021;DHT22;25188;51.958;5.842;2022-09-21T00:00:52;12.30;87.80
39021;DHT22;25188;51.958;5.842;2022-09-21T00:03:18;12.20;87.80
39021;DHT22;25188;51.958;5.842;2022-09-21T00:05:44;12.20;87.90
39021;DHT22;25188;51.958;5.842;2022-09-21T00:08:11;12.20;88.10
39021;DHT22;25188;51.958;5.842;2022-09-21T00:10:38;12.20;88.30
39021;DHT22;25188;51.958;5.842;2022-09-21T00:13:05;12.20;88.60
39021;DHT22;25188;51.958;5.842;2022-09-21T00:15:32;12.20;88.80
39021;DHT22;25188;51.958;5.842;2022-09-21T00:17:59;12.20;88.90
39021;DHT22;25188;51.958;5.842;2022-09-21T00:20:25;12.10;89.10
39021;DHT22;25188;51.958;5.842;2022-09-21T00:22:52;12.10;89.00
39021;DHT22;25188;51.958;5.842;2022-09-21T00:25:19;12.10;89.00
39021;DHT22;25188;51.958;5.842;2022-09-21T00:27:45;12.10;89.10
39021;DHT22;25188;51.958;5.842;2022-09-21T00:30:13;12.10;89.20
39021;DHT22;25188;51.958;5.842;2022-09-21T00:32:39;12.10;89.20
39021;DHT22;25188;51.958;5.842;2022-09-21T00:35:06;12.00;89.20
39021;DHT22;25188;51.958;5.842;2022-09-21T00:37:34;12.00;89.20
39021;DHT22;25188;51.958;5.842;2022-09-21T00:40:01;12.00;89.30
39021;DHT22;25188;51.958;5.842;2022-09-21T00:42:33;12.00;89.40
39021;DHT22;25188;51.958;5.842;2022-09-21T00:44:59;12.00;89.70
39021;DHT22;25188;51.958;5.842;2022-09-21T00:47:34;11.90;90.20
39021;DHT22;25188;51.958;5.842;2022-09-21T00:50:07;11.90;90.00
39021;DHT22;25188;51.958;5.842;2022-09-21T00:52:38;11.90;90.10
39021;DHT22;25188;51.958;5.842;2022-09-21T00:55:14;11.90;90.20
39021;DHT22;25188;51.958;5.842;2022-09-21T00:57:41;11.80;90.30
39021;DHT22;25188;51.958;5.842;2022-09-21T01:00:08;11.80;90.40
39021;DHT22;25188;51.958;5.842;2022-09-21T01:02:38;11.70;90.40
39021;DHT22;25188;51.958;5.842;2022-09-21T01:05:05;11.80;90.60
39021;DHT22;25188;51.958;5.842;2022-09-21T01:07:34;11.70;90.60
39021;DHT22;25188;51.958;5.842;2022-09-21T01:10:06;11.70;91.00
39021;DHT22;25188;51.958;5.842;2022-09-21T01:18:11;11.60;90.90
39021;DHT22;25188;51.958;5.842;2022-09-21T01:21:05;11.60;91.00
39021;DHT22;25188;51.958;5.842;2022-09-21T01:23:55;11.60;91.00
39021;DHT22;25188;51.958;5.842;2022-09-21T01:27:01;11.50;91.00
39021;DHT22;25188;51.958;5.842;2022-09-21T01:29:59;11.50;91.10
39021;DHT22;25188;51.958;5.842;2022-09-21T01:32:36;11.50;91.10
39021;DHT22;25188;51.958;5.842;2022-09-21T01:35:14;11.50;91.10
39021;DHT22;25188;51.958;5.842;2022-09-21T01:37:46;11.50;91.10
39021;DHT22;25188;51.958;5.842;2022-09-21T01:40:46;11.50;91.20
39021;DHT22;25188;51.958;5.842;2022-09-21T01:43:25;11.40;91.20
39021;DHT22;25188;51.958;5.842;2022-09-21T01:45:53;11.40;91.20
39021;DHT22;25188;51.958;5.842;2022-09-21T01:48:20;11.30;91.30
39021;DHT22;25188;51.958;5.842;2022-09-21T01:50:54;11.40;91.40
39021;DHT22;25188;51.958;5.842;2022-09-21T01:59:20;11.30;91.50
39021;DHT22;25188;51.958;5.842;2022-09-21T02:01:23;11.20;91.60
39021;DHT22;25188;51.958;5.842;2022-09-21T02:03:58;11.20;91.60
39021;DHT22;25188;51.958;5.842;2022-09-21T02:06:27;11.20;91.70
39021;DHT22;25188;51.958;5.842;2022-09-21T02:08:54;11.20;91.80
39021;DHT22;25188;51.958;5.842;2022-09-21T02:11:20;11.10;91.90
39021;DHT22;25188;51.958;5.842;2022-09-21T02:13:48;11.10;92.00
39021;DHT22;25188;51.958;5.842;2022-09-21T02:16:33;11.10;92.20
39021;DHT22;25188;51.958;5.842;2022-09-21T02:26:52;11.00;92.50
39021;DHT22;25188;51.958;5.842;2022-09-21T02:32:21;11.00;92.60
39021;DHT22;25188;51.958;5.842;2022-09-21T02:34:57;10.90;92.60
39021;DHT22;25188;51.958;5.842;2022-09-21T02:42:44;10.80;92.70
39021;DHT22;25188;51.958;5.842;2022-09-21T02:45:17;10.70;92.70
39021;DHT22;25188;51.958;5.842;2022-09-21T02:50:46;10.70;92.80
39021;DHT22;25188;51.958;5.842;2022-09-21T02:53:10;10.60;92.90
39021;DHT22;25188;51.958;5.842;2022-09-21T02:55:37;10.50;92.90
39021;DHT22;25188;51.958;5.842;2022-09-21T02:58:06;10.50;93.00
39021;DHT22;25188;51.958;5.842;2022-09-21T03:00:35;10.40;93.00
39021;DHT22;25188;51.958;5.842;2022-09-21T03:03:16;10.50;93.10
39021;DHT22;25188;51.958;5.842;2022-09-21T03:05:44;10.40;93.20
39021;DHT22;25188;51.958;5.842;2022-09-21T03:08:11;10.30;93.20
39021;DHT22;25188;51.958;5.842;2022-09-21T03:10:36;10.30;93.30
39021;DHT22;25188;51.958;5.842;2022-09-21T03:13:05;10.30;93.40
39021;DHT22;25188;51.958;5.842;2022-09-21T03:15:36;10.20;93.40
39021;DHT22;25188;51.958;5.842;2022-09-21T03:18:03;10.20;93.50
39021;DHT22;25188;51.958;5.842;2022-09-21T03:20:34;10.20;93.60
39021;DHT22;25188;51.958;5.842;2022-09-21T03:22:59;10.10;93.60
39021;DHT22;25188;51.958;5.842;2022-09-21T03:25:26;10.10;93.70
39021;DHT22;25188;51.958;5.842;2022-09-21T03:27:52;10.10;93.80
39021;DHT22;25188;51.958;5.842;2022-09-21T03:30:21;10.10;93.80
39021;DHT22;25188;51.958;5.842;2022-09-21T03:32:51;10.10;93.90
39021;DHT22;25188;51.958;5.842;2022-09-21T03:35:21;10.00;93.90
39021;DHT22;25188;51.958;5.842;2022-09-21T03:37:47;10.00;93.90
39021;DHT22;25188;51.958;5.842;2022-09-21T03:40:13;10.00;94.00
39021;DHT22;25188;51.958;5.842;2022-09-21T03:42:40;9.90;94.00
39021;DHT22;25188;51.958;5.842;2022-09-21T03:45:06;9.90;94.10
39021;DHT22;25188;51.958;5.842;2022-09-21T03:47:32;9.90;94.10
39021;DHT22;25188;51.958;5.842;2022-09-21T03:49:58;9.90;94.20
39021;DHT22;25188;51.958;5.842;2022-09-21T03:52:24;9.80;94.20
39021;DHT22;25188;51.958;5.842;2022-09-21T03:54:49;9.70;94.30
39021;DHT22;25188;51.958;5.842;2022-09-21T03:57:15;9.70;94.40
39021;DHT22;25188;51.958;5.842;2022-09-21T03:59:41;9.70;94.40
39021;DHT22;25188;51.958;5.842;2022-09-21T04:02:06;9.70;94.50
39021;DHT22;25188;51.958;5.842;2022-09-21T04:04:32;9.70;94.50
39021;DHT22;25188;51.958;5.842;2022-09-21T04:06:58;9.60;94.60
39021;DHT22;25188;51.958;5.842;2022-09-21T04:09:24;9.60;94.70
39021;DHT22;25188;51.958;5.842;2022-09-21T04:11:50;9.60;94.80
39021;DHT22;25188;51.958;5.842;2022-09-21T04:14:17;9.50;94.90
39021;DHT22;25188;51.958;5.842;2022-09-21T04:16:43;9.50;95.00
39021;DHT22;25188;51.958;5.842;2022-09-21T04:19:09;9.50;95.10
39021;DHT22;25188;51.958;5.842;2022-09-21T04:21:34;9.50;95.20
39021;DHT22;25188;51.958;5.842;2022-09-21T04:24:00;9.50;95.30
39021;DHT22;25188;51.958;5.842;2022-09-21T04:26:32;9.40;95.30
39021;DHT22;25188;51.958;5.842;2022-09-21T04:28:58;9.50;95.40
39021;DHT22;25188;51.958;5.842;2022-09-21T04:31:25;9.40;95.40
39021;DHT22;25188;51.958;5.842;2022-09-21T04:33:53;9.50;95.50
39021;DHT22;25188;51.958;5.842;2022-09-21T04:36:21;9.40;95.60
39021;DHT22;25188;51.958;5.842;2022-09-21T04:38:47;9.40;95.70
39021;DHT22;25188;51.958;5.842;2022-09-21T04:41:14;9.30;95.70
39021;DHT22;25188;51.958;5.842;2022-09-21T04:43:47;9.30;95.90
39021;DHT22;25188;51.958;5.842;2022-09-21T04:46:15;9.30;96.00
39021;DHT22;25188;51.958;5.842;2022-09-21T04:48:42;9.30;96.10
39021;DHT22;25188;51.958;5.842;2022-09-21T04:51:09;9.30;96.20
39021;DHT22;25188;51.958;5.842;2022-09-21T04:53:36;9.30;96.40
39021;DHT22;25188;51.958;5.842;2022-09-21T04:56:03;9.30;96.50
39021;DHT22;25188;51.958;5.842;2022-09-21T04:58:30;9.30;96.60
39021;DHT22;25188;51.958;5.842;2022-09-21T05:00:56;9.30;96.70
39021;DHT22;25188;51.958;5.842;2022-09-21T05:03:23;9.30;96.80
39021;DHT22;25188;51.958;5.842;2022-09-21T05:05:54;9.30;96.90
39021;DHT22;25188;51.958;5.842;2022-09-21T05:08:22;9.20;97.00
39021;DHT22;25188;51.958;5.842;2022-09-21T05:11:13;9.20;97.10
39021;DHT22;25188;51.958;5.842;2022-09-21T05:13:40;9.20;97.10
39021;DHT22;25188;51.958;5.842;2022-09-21T05:16:06;9.20;97.20
39021;DHT22;25188;51.958;5.842;2022-09-21T05:18:31;9.20;97.20
39021;DHT22;25188;51.958;5.842;2022-09-21T05:20:59;9.10;97.30
39021;DHT22;25188;51.958;5.842;2022-09-21T05:23:28;9.10;97.30
39021;DHT22;25188;51.958;5.842;2022-09-21T05:25:55;9.10;97.30
39021;DHT22;25188;51.958;5.842;2022-09-21T05:28:22;9.10;97.40
39021;DHT22;25188;51.958;5.842;2022-09-21T05:33:28;9.00;97.50
39021;DHT22;25188;51.958;5.842;2022-09-21T05:38:35;9.00;97.60
39021;DHT22;25188;51.958;5.842;2022-09-21T05:41:01;9.00;97.60
39021;DHT22;25188;51.958;5.842;2022-09-21T05:43:27;8.90;97.60
39021;DHT22;25188;51.958;5.842;2022-09-21T05:46:06;8.90;97.70
39021;DHT22;25188;51.958;5.842;2022-09-21T05:48:40;8.90;97.80
39021;DHT22;25188;51.958;5.842;2022-09-21T05:51:32;8.90;97.80
39021;DHT22;25188;51.958;5.842;2022-09-21T05:56:51;8.90;97.80
39021;DHT22;25188;51.958;5.842;2022-09-21T06:04:56;8.90;97.80
39021;DHT22;25188;51.958;5.842;2022-09-21T06:07:24;8.90;97.80
39021;DHT22;25188;51.958;5.842;2022-09-21T06:09:49;8.90;97.80
39021;DHT22;25188;51.958;5.842;2022-09-21T06:12:15;8.90;97.90
39021;DHT22;25188;51.958;5.842;2022-09-21T06:14:41;8.90;98.00
39021;DHT22;25188;51.958;5.842;2022-09-21T06:17:06;9.00;98.10
39021;DHT22;25188;51.958;5.842;2022-09-21T06:19:32;8.90;98.20
39021;DHT22;25188;51.958;5.842;2022-09-21T06:21:58;8.90;98.20
39021;DHT22;25188;51.958;5.842;2022-09-21T06:24:23;9.00;98.40
39021;DHT22;25188;51.958;5.842;2022-09-21T06:26:49;9.10;98.40
39021;DHT22;25188;51.958;5.842;2022-09-21T06:29:15;9.10;98.50
39021;DHT22;25188;51.958;5.842;2022-09-21T06:31:41;9.00;98.60
39021;DHT22;25188;51.958;5.842;2022-09-21T06:34:07;9.20;98.70
39021;DHT22;25188;51.958;5.842;2022-09-21T06:36:33;9.20;98.70
39021;DHT22;25188;51.958;5.842;2022-09-21T06:38:58;9.20;98.80
39021;DHT22;25188;51.958;5.842;2022-09-21T06:41:24;9.30;98.90
39021;DHT22;25188;51.958;5.842;2022-09-21T06:43:53;9.30;99.10
39021;DHT22;25188;51.958;5.842;2022-09-21T06:46:19;9.40;99.20
39021;DHT22;25188;51.958;5.842;2022-09-21T06:48:45;9.40;99.30
39021;DHT22;25188;51.958;5.842;2022-09-21T06:51:10;9.50;99.40
39021;DHT22;25188;51.958;5.842;2022-09-21T06:53:36;9.50;99.50
39021;DHT22;25188;51.958;5.842;2022-09-21T06:56:02;9.60;99.60
39021;DHT22;25188;51.958;5.842;2022-09-21T06:58:29;9.60;99.70
39021;DHT22;25188;51.958;5.842;2022-09-21T07:00:56;9.70;99.80
39021;DHT22;25188;51.958;5.842;2022-09-21T07:03:21;9.70;99.90
39021;DHT22;25188;51.958;5.842;2022-09-21T07:05:47;9.80;99.90
39021;DHT22;25188;51.958;5.842;2022-09-21T07:08:14;9.90;99.90
39021;DHT22;25188;51.958;5.842;2022-09-21T07:10:39;9.90;99.90
39021;DHT22;25188;51.958;5.842;2022-09-21T07:13:05;10.00;99.90
39021;DHT22;25188;51.958;5.842;2022-09-21T07:15:33;10.00;99.90
39021;DHT22;25188;51.958;5.842;2022-09-21T07:17:59;10.10;99.90
39021;DHT22;25188;51.958;5.842;2022-09-21T07:20:25;10.20;99.90
39021;DHT22;25188;51.958;5.842;2022-09-21T07:22:50;10.20;99.90
39021;DHT22;25188;51.958;5.842;2022-09-21T07:25:16;10.30;99.90
39021;DHT22;25188;51.958;5.842;2022-09-21T07:27:42;10.30;99.90
39021;DHT22;25188;51.958;5.842;2022-09-21T07:30:08;10.40;99.90
39021;DHT22;25188;51.958;5.842;2022-09-21T07:32:34;10.50;99.90
39021;DHT22;25188;51.958;5.842;2022-09-21T07:35:00;10.50;99.90
39021;DHT22;25188;51.958;5.842;2022-09-21T07:37:26;10.50;99.90
39021;DHT22;25188;51.958;5.842;2022-09-21T07:39:52;10.60;99.90
39021;DHT22;25188;51.958;5.842;2022-09-21T07:42:19;10.70;99.90
39021;DHT22;25188;51.958;5.842;2022-09-21T07:44:46;10.70;99.90
39021;DHT22;25188;51.958;5.842;2022-09-21T07:47:12;10.80;99.90
39021;DHT22;25188;51.958;5.842;2022-09-21T07:49:38;10.90;99.90
39021;DHT22;25188;51.958;5.842;2022-09-21T07:52:04;10.90;99.90
39021;DHT22;25188;51.958;5.842;2022-09-21T07:54:30;11.00;99.90
39021;DHT22;25188;51.958;5.842;2022-09-21T07:56:56;11.10;99.90
39021;DHT22;25188;51.958;5.842;2022-09-21T07:59:40;11.10;99.90
39021;DHT22;25188;51.958;5.842;2022-09-21T08:02:06;11.20;99.90
39021;DHT22;25188;51.958;5.842;2022-09-21T08:04:32;11.30;99.90
39021;DHT22;25188;51.958;5.842;2022-09-21T08:06:57;11.30;99.90
39021;DHT22;25188;51.958;5.842;2022-09-21T08:09:23;11.40;99.90
39021;DHT22;25188;51.958;5.842;2022-09-21T08:11:49;11.50;99.90
39021;DHT22;25188;51.958;5.842;2022-09-21T08:14:16;11.50;99.90
39021;DHT22;25188;51.958;5.842;2022-09-21T08:16:46;11.60;99.90
39021;DHT22;25188;51.958;5.842;2022-09-21T08:19:13;11.70;99.90
39021;DHT22;25188;51.958;5.842;2022-09-21T08:21:39;11.70;99.90
39021;DHT22;25188;51.958;5.842;2022-09-21T08:24:08;11.80;99.90
39021;DHT22;25188;51.958;5.842;2022-09-21T08:26:34;11.90;99.90
39021;DHT22;25188;51.958;5.842;2022-09-21T08:29:00;12.00;99.90
39021;DHT22;25188;51.958;5.842;2022-09-21T08:31:26;12.00;99.90
39021;DHT22;25188;51.958;5.842;2022-09-21T08:33:53;12.10;99.90
39021;DHT22;25188;51.958;5.842;2022-09-21T08:36:19;12.20;99.90
39021;DHT22;25188;51.958;5.842;2022-09-21T08:38:45;12.20;99.90
39021;DHT22;25188;51.958;5.842;2022-09-21T08:43:59;12.40;99.60
39021;DHT22;25188;51.958;5.842;2022-09-21T08:46:28;12.40;99.30
39021;DHT22;25188;51.958;5.842;2022-09-21T08:49:02;12.50;99.20
39021;DHT22;25188;51.958;5.842;2022-09-21T08:51:34;12.60;99.20
39021;DHT22;25188;51.958;5.842;2022-09-21T08:54:08;12.60;99.10
39021;DHT22;25188;51.958;5.842;2022-09-21T08:56:37;12.70;99.00
39021;DHT22;25188;51.958;5.842;2022-09-21T08:59:07;12.80;99.00
39021;DHT22;25188;51.958;5.842;2022-09-21T09:04:43;12.90;98.80
39021;DHT22;25188;51.958;5.842;2022-09-21T09:10:37;13.20;98.50
39021;DHT22;25188;51.958;5.842;2022-09-21T09:13:25;13.20;98.30
39021;DHT22;25188;51.958;5.842;2022-09-21T09:16:01;13.40;98.20
39021;DHT22;25188;51.958;5.842;2022-09-21T09:21:15;13.60;97.50
39021;DHT22;25188;51.958;5.842;2022-09-21T09:24:29;13.70;97.10
39021;DHT22;25188;51.958;5.842;2022-09-21T09:26:48;13.80;96.80
39021;DHT22;25188;51.958;5.842;2022-09-21T09:29:30;13.80;96.40
39021;DHT22;25188;51.958;5.842;2022-09-21T09:32:00;13.90;96.10
39021;DHT22;25188;51.958;5.842;2022-09-21T09:34:41;13.90;95.90
39021;DHT22;25188;51.958;5.842;2022-09-21T09:37:13;14.00;95.70
39021;DHT22;25188;51.958;5.842;2022-09-21T09:39:40;14.10;95.40
39021;DHT22;25188;51.958;5.842;2022-09-21T09:42:55;14.20;95.10
39021;DHT22;25188;51.958;5.842;2022-09-21T09:50:48;14.40;94.30
39021;DHT22;25188;51.958;5.842;2022-09-21T09:53:19;14.60;94.10
39021;DHT22;25188;51.958;5.842;2022-09-21T09:55:48;14.90;93.90
39021;DHT22;25188;51.958;5.842;2022-09-21T10:00:55;15.50;93.00
39021;DHT22;25188;51.958;5.842;2022-09-21T10:03:25;16.00;92.60
39021;DHT22;25188;51.958;5.842;2022-09-21T10:05:51;16.40;92.10
39021;DHT22;25188;51.958;5.842;2022-09-21T10:11:02;16.60;90.40
39021;DHT22;25188;51.958;5.842;2022-09-21T10:13:30;16.70;90.10
39021;DHT22;25188;51.958;5.842;2022-09-21T10:21:41;18.20;90.50
39021;DHT22;25188;51.958;5.842;2022-09-21T10:24:19;19.20;90.30
39021;DHT22;25188;51.958;5.842;2022-09-21T10:26:49;20.40;89.20
39021;DHT22;25188;51.958;5.842;2022-09-21T10:31:59;22.50;81.40
39021;DHT22;25188;51.958;5.842;2022-09-21T10:34:28;23.50;77.50
39021;DHT22;25188;51.958;5.842;2022-09-21T10:36:57;24.40;74.00
39021;DHT22;25188;51.958;5.842;2022-09-21T10:39:28;25.20;69.00
39021;DHT22;25188;51.958;5.842;2022-09-21T10:42:01;25.90;64.10
39021;DHT22;25188;51.958;5.842;2022-09-21T10:44:41;26.70;61.40
39021;DHT22;25188;51.958;5.842;2022-09-21T10:47:34;27.40;59.30
39021;DHT22;25188;51.958;5.842;2022-09-21T10:50:03;28.20;56.00
39021;DHT22;25188;51.958;5.842;2022-09-21T10:52:35;28.80;55.70
39021;DHT22;25188;51.958;5.842;2022-09-21T10:55:03;29.20;52.90
39021;DHT22;25188;51.958;5.842;2022-09-21T10:57:31;29.60;51.80
39021;DHT22;25188;51.958;5.842;2022-09-21T11:00:02;29.90;51.10
39021;DHT22;25188;51.958;5.842;2022-09-21T11:02:36;30.30;49.80
39021;DHT22;25188;51.958;5.842;2022-09-21T11:05:28;30.70;48.80
39021;DHT22;25188;51.958;5.842;2022-09-21T11:08:04;31.00;47.30
39021;DHT22;25188;51.958;5.842;2022-09-21T11:10:52;31.30;47.20
39021;DHT22;25188;51.958;5.842;2022-09-21T11:16:36;32.10;45.60
39021;DHT22;25188;51.958;5.842;2022-09-21T11:22:28;32.40;42.80
39021;DHT22;25188;51.958;5.842;2022-09-21T11:30:39;33.30;40.30
39021;DHT22;25188;51.958;5.842;2022-09-21T11:36:32;33.30;38.60
39021;DHT22;25188;51.958;5.842;2022-09-21T11:41:52;32.50;37.80
39021;DHT22;25188;51.958;5.842;2022-09-21T11:44:37;32.00;38.40
39021;DHT22;25188;51.958;5.842;2022-09-21T11:47:34;31.90;37.80
39021;DHT22;25188;51.958;5.842;2022-09-21T12:11:54;32.00;36.90
39021;DHT22;25188;51.958;5.842;2022-09-21T12:17:39;31.40;35.90
39021;DHT22;25188;51.958;5.842;2022-09-21T12:22:51;30.00;36.30
39021;DHT22;25188;51.958;5.842;2022-09-21T12:25:48;29.30;36.90
39021;DHT22;25188;51.958;5.842;2022-09-21T12:28:33;28.70;37.40
39021;DHT22;25188;51.958;5.842;2022-09-21T12:31:13;28.10;37.90
39021;DHT22;25188;51.958;5.842;2022-09-21T12:34:19;27.70;38.10
39021;DHT22;25188;51.958;5.842;2022-09-21T12:42:43;27.30;38.90
39021;DHT22;25188;51.958;5.842;2022-09-21T12:45:34;26.80;38.50
39021;DHT22;25188;51.958;5.842;2022-09-21T12:48:23;26.30;38.80
39021;DHT22;25188;51.958;5.842;2022-09-21T12:50:55;25.80;39.30
39021;DHT22;25188;51.958;5.842;2022-09-21T12:53:25;25.40;40.10
39021;DHT22;25188;51.958;5.842;2022-09-21T12:56:05;25.00;41.20
39021;DHT22;25188;51.958;5.842;2022-09-21T12:59:48;24.80;41.60
39021;DHT22;25188;51.958;5.842;2022-09-21T13:01:45;24.50;41.80
39021;DHT22;25188;51.958;5.842;2022-09-21T13:09:45;23.80;42.30
39021;DHT22;25188;51.958;5.842;2022-09-21T13:12:23;23.70;42.50
39021;DHT22;25188;51.958;5.842;2022-09-21T13:14:56;23.50;42.80
39021;DHT22;25188;51.958;5.842;2022-09-21T13:17:29;23.30;43.40
39021;DHT22;25188;51.958;5.842;2022-09-21T13:20:19;23.20;44.10
39021;DHT22;25188;51.958;5.842;2022-09-21T13:22:45;23.10;44.50
39021;DHT22;25188;51.958;5.842;2022-09-21T13:25:22;22.90;44.40
39021;DHT22;25188;51.958;5.842;2022-09-21T13:30:48;22.70;44.60
39021;DHT22;25188;51.958;5.842;2022-09-21T13:44:01;22.00;47.10
39021;DHT22;25188;51.958;5.842;2022-09-21T13:49:12;21.80;47.70
39021;DHT22;25188;51.958;5.842;2022-09-21T13:51:53;21.70;48.00
39021;DHT22;25188;51.958;5.842;2022-09-21T13:54:24;21.50;48.20
39021;DHT22;25188;51.958;5.842;2022-09-21T13:59:34;21.50;48.70
39021;DHT22;25188;51.958;5.842;2022-09-21T14:02:01;21.40;48.70
39021;DHT22;25188;51.958;5.842;2022-09-21T14:04:31;21.40;49.70
39021;DHT22;25188;51.958;5.842;2022-09-21T14:07:05;21.40;49.50
39021;DHT22;25188;51.958;5.842;2022-09-21T14:09:40;21.40;49.60
39021;DHT22;25188;51.958;5.842;2022-09-21T14:12:16;21.50;49.80
39021;DHT22;25188;51.958;5.842;2022-09-21T14:15:07;22.30;51.00
39021;DHT22;25188;51.958;5.842;2022-09-21T14:17:41;23.50;48.40
39021;DHT22;25188;51.958;5.842;2022-09-21T14:20:30;24.50;46.70
39021;DHT22;25188;51.958;5.842;2022-09-21T14:23:28;25.40;45.30
39021;DHT22;25188;51.958;5.842;2022-09-21T14:25:58;26.50;43.90
39021;DHT22;25188;51.958;5.842;2022-09-21T14:28:27;27.10;42.90
39021;DHT22;25188;51.958;5.842;2022-09-21T14:31:03;27.70;42.10
39021;DHT22;25188;51.958;5.842;2022-09-21T14:33:34;28.30;41.20
39021;DHT22;25188;51.958;5.842;2022-09-21T14:36:07;28.90;40.30
39021;DHT22;25188;51.958;5.842;2022-09-21T14:38:48;29.40;40.10
39021;DHT22;25188;51.958;5.842;2022-09-21T14:41:20;29.90;38.30
39021;DHT22;25188;51.958;5.842;2022-09-21T14:43:54;30.40;37.70
39021;DHT22;25188;51.958;5.842;2022-09-21T14:51:48;31.50;36.10
39021;DHT22;25188;51.958;5.842;2022-09-21T14:54:57;31.70;35.40
39021;DHT22;25188;51.958;5.842;2022-09-21T14:58:32;32.10;34.90
39021;DHT22;25188;51.958;5.842;2022-09-21T15:00:40;32.10;34.70
39021;DHT22;25188;51.958;5.842;2022-09-21T15:12:15;32.70;34.30
39021;DHT22;25188;51.958;5.842;2022-09-21T15:14:46;32.80;33.80
39021;DHT22;25188;51.958;5.842;2022-09-21T15:17:26;32.90;33.40
39021;DHT22;25188;51.958;5.842;2022-09-21T15:19:58;32.90;33.10
39021;DHT22;25188;51.958;5.842;2022-09-21T15:22:27;32.90;33.10
39021;DHT22;25188;51.958;5.842;2022-09-21T15:24:58;32.90;33.10
39021;DHT22;25188;51.958;5.842;2022-09-21T15:27:31;32.90;32.90
39021;DHT22;25188;51.958;5.842;2022-09-21T15:30:02;32.80;32.80
39021;DHT22;25188;51.958;5.842;2022-09-21T15:32:40;32.80;32.80
39021;DHT22;25188;51.958;5.842;2022-09-21T15:35:35;32.80;32.60
39021;DHT22;25188;51.958;5.842;2022-09-21T15:38:01;32.70;32.20
39021;DHT22;25188;51.958;5.842;2022-09-21T15:40:32;32.70;32.60
39021;DHT22;25188;51.958;5.842;2022-09-21T15:43:15;32.80;32.90
39021;DHT22;25188;51.958;5.842;2022-09-21T15:46:00;32.70;32.60
39021;DHT22;25188;51.958;5.842;2022-09-21T15:48:27;32.50;32.70
39021;DHT22;25188;51.958;5.842;2022-09-21T15:51:12;32.60;32.70
39021;DHT22;25188;51.958;5.842;2022-09-21T15:53:50;32.60;32.60
39021;DHT22;25188;51.958;5.842;2022-09-21T15:56:19;32.60;32.40
39021;DHT22;25188;51.958;5.842;2022-09-21T15:58:46;32.30;32.50
39021;DHT22;25188;51.958;5.842;2022-09-21T16:01:15;32.10;32.60
39021;DHT22;25188;51.958;5.842;2022-09-21T16:03:44;31.70;32.70
39021;DHT22;25188;51.958;5.842;2022-09-21T16:08:47;30.70;33.40
39021;DHT22;25188;51.958;5.842;2022-09-21T16:13:45;29.50;34.20
39021;DHT22;25188;51.958;5.842;2022-09-21T16:16:30;29.00;34.50
39021;DHT22;25188;51.958;5.842;2022-09-21T16:18:57;28.50;35.00
39021;DHT22;25188;51.958;5.842;2022-09-21T16:21:28;28.10;35.40
39021;DHT22;25188;51.958;5.842;2022-09-21T16:24:07;27.70;35.90
39021;DHT22;25188;51.958;5.842;2022-09-21T16:26:38;27.40;36.50
39021;DHT22;25188;51.958;5.842;2022-09-21T16:31:43;26.80;37.30
39021;DHT22;25188;51.958;5.842;2022-09-21T16:34:37;26.50;37.50
39021;DHT22;25188;51.958;5.842;2022-09-21T16:39:49;25.80;38.20
39021;DHT22;25188;51.958;5.842;2022-09-21T16:42:15;25.50;38.30
39021;DHT22;25188;51.958;5.842;2022-09-21T16:44:41;25.20;38.70
39021;DHT22;25188;51.958;5.842;2022-09-21T16:47:19;25.00;39.10
39021;DHT22;25188;51.958;5.842;2022-09-21T16:49:52;24.70;39.90
39021;DHT22;25188;51.958;5.842;2022-09-21T16:52:20;24.30;40.30
39021;DHT22;25188;51.958;5.842;2022-09-21T16:54:46;24.00;40.40
39021;DHT22;25188;51.958;5.842;2022-09-21T16:57:14;23.60;41.10
39021;DHT22;25188;51.958;5.842;2022-09-21T16:59:40;23.20;42.10
39021;DHT22;25188;51.958;5.842;2022-09-21T17:02:06;22.90;43.00
39021;DHT22;25188;51.958;5.842;2022-09-21T17:04:34;22.60;43.80
39021;DHT22;25188;51.958;5.842;2022-09-21T17:07:00;22.30;44.50
39021;DHT22;25188;51.958;5.842;2022-09-21T17:12:03;21.80;45.70
39021;DHT22;25188;51.958;5.842;2022-09-21T17:14:32;21.60;46.40
39021;DHT22;25188;51.958;5.842;2022-09-21T17:17:02;21.40;47.40
39021;DHT22;25188;51.958;5.842;2022-09-21T17:19:30;21.10;48.10
39021;DHT22;25188;51.958;5.842;2022-09-21T17:21:56;20.80;49.20
39021;DHT22;25188;51.958;5.842;2022-09-21T17:24:22;20.50;50.60
39021;DHT22;25188;51.958;5.842;2022-09-21T17:26:47;20.20;51.50
39021;DHT22;25188;51.958;5.842;2022-09-21T17:29:19;20.00;52.30
39021;DHT22;25188;51.958;5.842;2022-09-21T17:31:48;19.80;53.00
39021;DHT22;25188;51.958;5.842;2022-09-21T17:34:20;19.60;53.20
39021;DHT22;25188;51.958;5.842;2022-09-21T17:36:46;19.50;53.60
39021;DHT22;25188;51.958;5.842;2022-09-21T17:39:12;19.20;54.00
39021;DHT22;25188;51.958;5.842;2022-09-21T17:41:48;19.00;54.50
39021;DHT22;25188;51.958;5.842;2022-09-21T17:47:29;18.70;55.90
39021;DHT22;25188;51.958;5.842;2022-09-21T17:52:40;18.30;56.70
39021;DHT22;25188;51.958;5.842;2022-09-21T17:55:25;18.20;57.10
39021;DHT22;25188;51.958;5.842;2022-09-21T18:01:02;17.80;58.50
39021;DHT22;25188;51.958;5.842;2022-09-21T18:03:31;17.60;58.90
39021;DHT22;25188;51.958;5.842;2022-09-21T18:06:00;17.50;59.00
39021;DHT22;25188;51.958;5.842;2022-09-21T18:08:31;17.50;59.20
39021;DHT22;25188;51.958;5.842;2022-09-21T18:17:20;17.30;60.30
39021;DHT22;25188;51.958;5.842;2022-09-21T18:20:17;17.20;60.40
39021;DHT22;25188;51.958;5.842;2022-09-21T18:25:30;17.10;61.20
39021;DHT22;25188;51.958;5.842;2022-09-21T18:27:57;16.90;62.00
39021;DHT22;25188;51.958;5.842;2022-09-21T18:30:24;16.80;62.20
39021;DHT22;25188;51.958;5.842;2022-09-21T18:33:18;16.70;62.60
39021;DHT22;25188;51.958;5.842;2022-09-21T18:38:26;16.50;63.50
39021;DHT22;25188;51.958;5.842;2022-09-21T18:44:47;16.30;64.30
39021;DHT22;25188;51.958;5.842;2022-09-21T18:53:13;16.00;65.00
39021;DHT22;25188;51.958;5.842;2022-09-21T18:55:41;16.00;65.50
39021;DHT22;25188;51.958;5.842;2022-09-21T18:58:08;15.80;65.50
39021;DHT22;25188;51.958;5.842;2022-09-21T19:00:35;15.70;66.00
39021;DHT22;25188;51.958;5.842;2022-09-21T19:03:06;15.60;66.20
39021;DHT22;25188;51.958;5.842;2022-09-21T19:05:33;15.60;66.80
39021;DHT22;25188;51.958;5.842;2022-09-21T19:10:35;15.30;67.60
39021;DHT22;25188;51.958;5.842;2022-09-21T19:16:34;15.10;68.70
39021;DHT22;25188;51.958;5.842;2022-09-21T19:25:11;14.70;68.90
39021;DHT22;25188;51.958;5.842;2022-09-21T19:30:20;14.40;69.20
39021;DHT22;25188;51.958;5.842;2022-09-21T19:32:48;14.40;69.50
39021;DHT22;25188;51.958;5.842;2022-09-21T19:35:30;14.30;70.00
39021;DHT22;25188;51.958;5.842;2022-09-21T19:37:58;14.20;70.50
39021;DHT22;25188;51.958;5.842;2022-09-21T19:40:27;14.10;70.70
39021;DHT22;25188;51.958;5.842;2022-09-21T19:48:17;14.00;71.50
39021;DHT22;25188;51.958;5.842;2022-09-21T19:50:53;13.90;71.80